createdAt,value
2023-03-29T00:00:12.631Z,24.88
2023-03-29T00:02:17.167Z,27.50
2023-03-29T00:04:20.263Z,26.23
2023-03-29T00:06:24.913Z,35.08
2023-03-29T00:08:27.872Z,27.20
2023-03-29T00:10:32.654Z,27.90
2023-03-29T00:12:36.197Z,24.67
2023-03-29T00:14:39.077Z,29.92
2023-03-29T00:16:42.485Z,30.48
2023-03-29T00:18:45.794Z,33.65
2023-03-29T00:20:55.829Z,29.92
2023-03-29T00:23:00.151Z,34.60
2023-03-29T00:25:03.280Z,32.08
2023-03-29T00:27:06.195Z,31.65
2023-03-29T00:29:09.402Z,34.17
2023-03-29T00:31:14.242Z,29.20
2023-03-29T00:33:20.808Z,31.10
2023-03-29T00:35:23.770Z,35.67
2023-03-29T00:37:27.235Z,32.22
2023-03-29T00:39:32.836Z,35.85
2023-03-29T00:41:36.793Z,37.55
2023-03-29T00:43:57.586Z,35.35
2023-03-29T00:46:00.974Z,29.38
2023-03-29T00:48:07.574Z,33.42
2023-03-29T00:50:16.754Z,31.58
2023-03-29T00:52:22.994Z,33.85
2023-03-29T00:54:28.433Z,36.78
2023-03-29T00:56:37.385Z,32.00
2023-03-29T00:58:48.184Z,32.90
2023-03-29T01:00:58.197Z,29.55
2023-03-29T01:03:07.426Z,27.98
2023-03-29T01:05:15.877Z,33.22
2023-03-29T01:07:22.637Z,33.45
2023-03-29T01:09:30.664Z,32.75
2023-03-29T01:11:41.356Z,34.70
2023-03-29T01:13:50.753Z,27.80
2023-03-29T01:15:56.845Z,31.00
2023-03-29T01:18:02.224Z,31.75
2023-03-29T01:20:14.616Z,32.78
2023-03-29T01:22:32.437Z,32.22
2023-03-29T01:24:53.542Z,39.00
2023-03-29T01:27:03.796Z,49.15
2023-03-29T01:29:12.075Z,42.05
2023-03-29T01:31:22.290Z,33.75
2023-03-29T01:33:29.597Z,34.80
2023-03-29T01:35:38.787Z,30.85
2023-03-29T01:37:48.212Z,32.13
2023-03-29T01:39:52.367Z,35.88
2023-03-29T01:42:10.481Z,33.88
2023-03-29T01:44:20.836Z,35.55
2023-03-29T01:46:31.103Z,38.03
2023-03-29T01:48:45.241Z,41.28
2023-03-29T01:50:51.316Z,32.05
2023-03-29T01:53:00.036Z,38.75
2023-03-29T01:55:08.635Z,34.55
2023-03-29T01:57:12.518Z,37.08
2023-03-29T01:59:22.992Z,40.88
2023-03-29T02:01:30.362Z,34.97
2023-03-29T02:03:42.709Z,36.55
2023-03-29T02:05:46.495Z,40.35
2023-03-29T02:07:50.860Z,32.15
2023-03-29T02:09:54.896Z,32.85
2023-03-29T02:12:01.475Z,33.05
2023-03-29T02:14:08.394Z,38.95
2023-03-29T02:16:14.163Z,36.20
2023-03-29T02:18:19.044Z,37.75
2023-03-29T02:20:26.998Z,32.92
2023-03-29T02:22:37.074Z,32.72
2023-03-29T02:24:42.793Z,39.78
2023-03-29T02:26:46.395Z,38.95
2023-03-29T02:28:49.894Z,33.95
2023-03-29T02:30:57.557Z,31.70
2023-03-29T02:33:08.960Z,34.95
2023-03-29T02:35:18.514Z,32.47
2023-03-29T02:37:24.720Z,34.47
2023-03-29T02:39:29.993Z,31.63
2023-03-29T02:41:37.388Z,34.28
2023-03-29T02:43:42.838Z,29.65
2023-03-29T02:45:47.557Z,30.65
2023-03-29T02:47:54.898Z,28.77
2023-03-29T02:50:01.717Z,31.67
2023-03-29T02:52:09.577Z,34.50
2023-03-29T02:54:15.941Z,35.08
2023-03-29T02:56:19.843Z,36.13
2023-03-29T02:58:26.842Z,31.17
2023-03-29T03:00:30.200Z,37.88
2023-03-29T03:02:33.922Z,34.70
2023-03-29T03:04:37.000Z,40.60
2023-03-29T03:06:41.769Z,32.50
2023-03-29T03:08:46.518Z,31.55
2023-03-29T03:10:49.996Z,37.28
2023-03-29T03:14:58.080Z,37.17
2023-03-29T03:17:03.893Z,39.08
2023-03-29T03:19:08.240Z,34.30
2023-03-29T03:21:11.918Z,36.53
2023-03-29T03:23:16.387Z,33.13
2023-03-29T03:25:21.474Z,44.13
2023-03-29T03:27:25.593Z,34.63
2023-03-29T03:29:28.752Z,32.00
2023-03-29T03:31:34.614Z,37.22
2023-03-29T03:33:50.312Z,38.70
2023-03-29T03:36:12.596Z,39.28
2023-03-29T03:38:20.014Z,39.65
2023-03-29T03:40:30.340Z,38.65
2023-03-29T03:42:33.339Z,37.60
2023-03-29T03:44:38.292Z,39.33
2023-03-29T03:47:02.681Z,37.20
2023-03-29T03:49:06.077Z,34.60
2023-03-29T03:51:14.358Z,32.80
2023-03-29T03:53:17.356Z,37.08
2023-03-29T03:55:40.061Z,36.08
2023-03-29T03:57:48.272Z,35.45
2023-03-29T03:59:54.671Z,42.28
2023-03-29T04:02:16.661Z,35.30
2023-03-29T04:04:21.006Z,33.53
2023-03-29T04:06:53.239Z,32.55
2023-03-29T04:09:18.503Z,35.95
2023-03-29T04:11:29.831Z,40.72
2023-03-29T04:13:32.801Z,39.13
2023-03-29T04:16:05.580Z,33.13
2023-03-29T04:18:08.928Z,39.95
2023-03-29T04:20:19.205Z,35.58
2023-03-29T04:22:22.282Z,35.83
2023-03-29T04:24:25.670Z,31.25
2023-03-29T04:26:50.113Z,37.45
2023-03-29T04:28:57.997Z,30.40
2023-03-29T04:31:17.214Z,34.50
2023-03-29T04:33:40.535Z,39.83
2023-03-29T04:35:44.353Z,35.90
2023-03-29T04:37:51.878Z,36.75
2023-03-29T04:39:57.564Z,37.35
2023-03-29T04:42:03.347Z,33.42
2023-03-29T04:44:08.724Z,37.67
2023-03-29T04:46:11.902Z,35.35
2023-03-29T04:48:43.038Z,35.25
2023-03-29T04:50:47.676Z,32.88
2023-03-29T04:52:53.280Z,36.72
2023-03-29T04:54:56.997Z,38.63
2023-03-29T04:57:03.545Z,34.22
2023-03-29T04:59:29.502Z,27.85
2023-03-29T05:01:33.148Z,31.55
2023-03-29T05:03:36.838Z,36.25
2023-03-29T05:05:48.756Z,39.55
2023-03-29T05:07:51.835Z,33.85
2023-03-29T05:10:00.127Z,39.38
2023-03-29T05:12:05.639Z,34.15
2023-03-29T05:14:21.956Z,35.53
2023-03-29T05:16:26.807Z,38.35
2023-03-29T05:18:33.676Z,34.28
2023-03-29T05:20:37.928Z,31.17
2023-03-29T05:22:41.315Z,32.80
2023-03-29T05:24:47.277Z,32.10
2023-03-29T05:26:53.244Z,36.53
2023-03-29T05:28:58.246Z,40.70
2023-03-29T05:31:02.914Z,33.17
2023-03-29T05:33:06.868Z,34.57
2023-03-29T05:35:11.727Z,35.58
2023-03-29T05:37:15.121Z,32.40
2023-03-29T05:39:26.237Z,32.65
2023-03-29T05:41:29.793Z,34.25
2023-03-29T05:44:01.954Z,31.55
2023-03-29T05:46:07.660Z,32.45
2023-03-29T05:48:12.742Z,35.58
2023-03-29T05:50:19.113Z,28.05
2023-03-29T05:52:22.122Z,33.33
2023-03-29T05:54:25.352Z,32.10
2023-03-29T05:56:28.944Z,31.95
2023-03-29T05:58:32.049Z,31.70
2023-03-29T06:00:38.204Z,33.95
2023-03-29T06:03:06.487Z,32.60
2023-03-29T06:05:14.268Z,27.02
2023-03-29T06:07:32.359Z,33.13
2023-03-29T06:09:55.960Z,26.65
2023-03-29T06:11:59.796Z,29.52
2023-03-29T06:14:16.401Z,27.85
2023-03-29T06:16:27.566Z,28.23
2023-03-29T06:18:30.588Z,29.45
2023-03-29T06:20:33.760Z,29.40
2023-03-29T06:22:42.845Z,30.85
2023-03-29T06:24:48.241Z,27.20
2023-03-29T06:27:00.310Z,29.02
2023-03-29T06:29:04.887Z,26.13
2023-03-29T06:31:10.535Z,22.63
2023-03-29T06:33:17.396Z,28.17
2023-03-29T06:35:48.964Z,23.25
2023-03-29T06:37:56.440Z,22.98
2023-03-29T06:40:27.664Z,22.10
2023-03-29T06:42:30.827Z,23.75
2023-03-29T06:44:52.040Z,21.38
2023-03-29T06:46:55.830Z,20.65
2023-03-29T06:49:01.731Z,19.77
2023-03-29T06:51:24.078Z,16.95
2023-03-29T06:53:28.418Z,16.77
2023-03-29T06:55:36.667Z,17.23
2023-03-29T06:58:03.019Z,20.38
2023-03-29T07:00:28.404Z,18.83
2023-03-29T07:02:52.597Z,17.20
2023-03-29T07:04:57.117Z,16.52
2023-03-29T07:07:07.978Z,18.95
2023-03-29T07:09:13.279Z,17.50
2023-03-29T07:11:39.564Z,22.02
2023-03-29T07:13:55.915Z,18.88
2023-03-29T07:15:59.558Z,19.45
2023-03-29T07:18:28.670Z,22.35
2023-03-29T07:20:34.154Z,20.88
2023-03-29T07:22:45.096Z,18.10
2023-03-29T07:24:49.616Z,19.80
2023-03-29T07:27:03.445Z,22.20
2023-03-29T07:29:08.076Z,17.88
2023-03-29T07:31:13.682Z,17.17
2023-03-29T07:33:23.548Z,20.50
2023-03-29T07:35:33.995Z,22.13
2023-03-29T07:37:37.884Z,20.23
2023-03-29T07:39:43.448Z,20.17
2023-03-29T07:42:12.393Z,20.27
2023-03-29T07:44:15.442Z,17.15
2023-03-29T07:46:20.105Z,18.75
2023-03-29T07:48:23.512Z,21.83
2023-03-29T07:50:36.232Z,61.45
2023-03-29T07:52:40.543Z,31.77
2023-03-29T07:54:43.784Z,26.98
2023-03-29T07:56:59.126Z,79.35
2023-03-29T07:59:13.811Z,19.52
2023-03-29T08:01:20.072Z,25.08
2023-03-29T08:03:52.554Z,21.83
2023-03-29T08:06:02.762Z,37.88
2023-03-29T08:08:06.996Z,19.10
2023-03-29T08:10:23.036Z,19.88
2023-03-29T08:12:55.391Z,16.25
2023-03-29T08:15:09.556Z,17.67
2023-03-29T08:17:13.321Z,46.92
2023-03-29T08:19:22.238Z,12.38
2023-03-29T08:21:38.197Z,11.55
2023-03-29T08:23:41.490Z,19.60
2023-03-29T08:25:55.258Z,14.63
2023-03-29T08:27:58.355Z,11.68
2023-03-29T08:30:18.500Z,23.45
2023-03-29T08:32:21.878Z,18.25
2023-03-29T08:34:25.159Z,22.85
2023-03-29T08:36:48.679Z,12.88
2023-03-29T08:39:03.846Z,12.48
2023-03-29T08:41:21.720Z,17.90
2023-03-29T08:44:00.316Z,25.33
2023-03-29T08:46:21.670Z,19.55
2023-03-29T08:48:29.139Z,14.20
2023-03-29T08:50:37.316Z,14.43
2023-03-29T08:52:46.564Z,9.48
2023-03-29T08:55:31.960Z,18.98
2023-03-29T08:57:55.275Z,18.08
2023-03-29T09:00:13.723Z,14.60
2023-03-29T09:02:22.700Z,9.20
2023-03-29T09:04:32.007Z,10.00
2023-03-29T09:06:55.602Z,27.27
2023-03-29T09:09:04.156Z,9.85
2023-03-29T09:11:41.217Z,19.50
2023-03-29T09:13:55.435Z,15.85
2023-03-29T09:16:07.181Z,7.63
2023-03-29T09:18:24.285Z,18.15
2023-03-29T09:20:42.994Z,14.88
2023-03-29T09:22:55.433Z,14.32
2023-03-29T09:25:13.698Z,6.53
2023-03-29T09:27:24.760Z,5.20
2023-03-29T09:29:55.473Z,7.80
2023-03-29T09:32:20.792Z,17.42
2023-03-29T09:34:33.353Z,7.80
2023-03-29T09:36:48.853Z,7.22
2023-03-29T09:38:54.961Z,8.20
2023-03-29T09:41:07.472Z,6.00
2023-03-29T09:43:14.229Z,5.05
2023-03-29T09:45:18.315Z,5.55
2023-03-29T09:47:28.471Z,3.60
2023-03-29T09:49:43.035Z,5.97
2023-03-29T09:51:49.629Z,3.47
2023-03-29T09:53:56.671Z,3.20
2023-03-29T09:56:16.341Z,4.15
2023-03-29T09:58:27.879Z,3.67
2023-03-29T10:00:31.295Z,7.05
2023-03-29T10:02:34.352Z,3.38
2023-03-29T10:04:38.867Z,6.60
2023-03-29T10:06:49.526Z,6.10
2023-03-29T10:08:59.286Z,6.75
2023-03-29T10:11:23.696Z,7.82
2023-03-29T10:13:29.754Z,6.63
2023-03-29T10:15:33.180Z,5.32
2023-03-29T10:17:40.920Z,7.88
2023-03-29T10:19:50.267Z,9.15
2023-03-29T10:21:54.276Z,6.97
2023-03-29T10:24:00.042Z,7.95
2023-03-29T10:26:04.647Z,6.88
2023-03-29T10:28:13.596Z,4.97
2023-03-29T10:30:24.565Z,10.45
2023-03-29T10:32:32.867Z,10.65
2023-03-29T10:34:35.875Z,8.38
2023-03-29T10:36:42.519Z,8.82
2023-03-29T10:38:45.777Z,6.60
2023-03-29T10:40:50.324Z,6.70
2023-03-29T10:42:57.958Z,9.95
2023-03-29T10:45:02.495Z,6.15
2023-03-29T10:47:15.264Z,9.55
2023-03-29T10:49:19.995Z,10.35
2023-03-29T10:51:25.038Z,6.68
2023-03-29T10:53:29.980Z,6.95
2023-03-29T10:55:42.196Z,6.80
2023-03-29T10:57:58.235Z,6.78
2023-03-29T11:00:08.743Z,6.00
2023-03-29T11:02:48.263Z,5.20
2023-03-29T11:04:58.821Z,6.32
2023-03-29T11:07:23.034Z,9.35
2023-03-29T11:09:40.139Z,9.52
2023-03-29T11:12:15.191Z,8.70
2023-03-29T11:14:30.796Z,9.23
2023-03-29T11:16:42.393Z,5.50
2023-03-29T11:19:14.843Z,8.13
2023-03-29T11:21:27.607Z,5.85
2023-03-29T11:23:41.944Z,7.93
2023-03-29T11:25:53.792Z,11.38
2023-03-29T11:28:05.515Z,6.00
2023-03-29T11:30:13.670Z,8.57
2023-03-29T11:32:26.376Z,6.55
2023-03-29T11:34:35.454Z,14.60
2023-03-29T11:36:50.843Z,8.70
2023-03-29T11:39:04.916Z,11.35
2023-03-29T11:41:16.221Z,6.50
2023-03-29T11:43:23.193Z,7.47
2023-03-29T11:45:32.834Z,7.30
2023-03-29T11:47:40.853Z,10.35
2023-03-29T11:49:49.598Z,9.80
2023-03-29T11:51:55.996Z,5.40
2023-03-29T11:54:04.874Z,6.80
2023-03-29T11:56:12.442Z,11.38
2023-03-29T11:58:20.868Z,4.68
2023-03-29T12:00:27.912Z,7.40
2023-03-29T12:02:37.054Z,16.20
2023-03-29T12:04:47.661Z,8.35
2023-03-29T12:06:57.473Z,8.27
2023-03-29T12:09:04.289Z,5.10
2023-03-29T12:11:13.960Z,4.38
2023-03-29T12:13:22.956Z,5.07
2023-03-29T12:15:29.972Z,4.13
2023-03-29T12:17:38.520Z,7.65
2023-03-29T12:19:49.312Z,8.43
2023-03-29T12:21:56.495Z,12.52
2023-03-29T12:24:00.842Z,5.55
2023-03-29T12:26:17.421Z,4.80
2023-03-29T12:28:37.075Z,12.45
2023-03-29T12:30:52.844Z,8.48
2023-03-29T12:33:18.634Z,5.15
2023-03-29T12:35:42.609Z,8.57
2023-03-29T12:38:17.163Z,7.65
2023-03-29T12:40:42.635Z,4.18
2023-03-29T12:43:07.851Z,9.32
2023-03-29T12:45:39.565Z,8.13
2023-03-29T12:47:45.901Z,9.30
2023-03-29T12:49:53.798Z,6.47
2023-03-29T12:52:02.061Z,5.50
2023-03-29T12:54:10.587Z,9.95
2023-03-29T12:56:17.160Z,9.02
2023-03-29T12:58:37.751Z,7.13
2023-03-29T13:00:45.967Z,10.85
2023-03-29T13:03:01.164Z,12.57
2023-03-29T13:05:05.833Z,2.70
2023-03-29T13:07:15.647Z,7.80
2023-03-29T13:09:23.857Z,7.40
2023-03-29T13:11:29.577Z,12.48
2023-03-29T13:13:37.026Z,5.28
2023-03-29T13:15:43.417Z,6.13
2023-03-29T13:17:56.918Z,12.43
2023-03-29T13:20:21.411Z,6.88
2023-03-29T13:22:37.447Z,8.10
2023-03-29T13:24:54.578Z,5.97
2023-03-29T13:27:07.468Z,1.95
2023-03-29T13:29:29.396Z,8.82
2023-03-29T13:31:41.864Z,6.32
2023-03-29T13:33:55.856Z,9.52
2023-03-29T13:36:06.180Z,8.13
2023-03-29T13:38:19.892Z,15.25
2023-03-29T13:40:32.361Z,9.35
2023-03-29T13:42:42.192Z,10.75
2023-03-29T13:44:49.200Z,7.63
2023-03-29T13:47:03.914Z,7.93
2023-03-29T13:49:14.930Z,11.00
2023-03-29T13:51:28.300Z,6.30
2023-03-29T13:53:37.731Z,5.35
2023-03-29T13:55:47.645Z,8.23
2023-03-29T13:57:55.972Z,204.10
2023-03-29T14:00:02.883Z,256.10
2023-03-29T14:02:22.302Z,287.52
2023-03-29T14:04:30.647Z,14.95
2023-03-29T14:06:36.956Z,10.02
2023-03-29T14:08:42.328Z,10.48
2023-03-29T14:10:46.614Z,11.18
2023-03-29T14:12:50.406Z,33.40
2023-03-29T14:14:59.782Z,14.73
2023-03-29T14:17:03.147Z,15.23
2023-03-29T14:19:13.766Z,14.63
2023-03-29T14:21:18.588Z,12.13
2023-03-29T14:23:24.206Z,17.27
2023-03-29T14:25:30.157Z,15.73
2023-03-29T14:27:37.434Z,14.90
2023-03-29T14:29:40.695Z,12.75
2023-03-29T14:31:43.740Z,12.55
2023-03-29T14:33:47.280Z,15.38
2023-03-29T14:35:51.543Z,12.73
2023-03-29T14:37:54.557Z,14.80
2023-03-29T14:39:59.800Z,9.88
2023-03-29T14:42:11.114Z,14.10
2023-03-29T14:44:14.994Z,11.35
2023-03-29T14:46:21.981Z,8.73
2023-03-29T14:48:26.753Z,10.18
2023-03-29T14:50:31.725Z,10.93
2023-03-29T14:52:35.527Z,76.80
2023-03-29T14:54:40.541Z,199.30
2023-03-29T14:56:43.694Z,106.30
2023-03-29T14:58:48.455Z,52.47
2023-03-29T15:00:53.146Z,18.55
2023-03-29T15:02:59.014Z,38.40
2023-03-29T15:05:03.810Z,42.00
2023-03-29T15:07:07.117Z,77.17
2023-03-29T15:09:17.270Z,42.25
2023-03-29T15:11:23.574Z,27.85
2023-03-29T15:13:27.913Z,15.40
2023-03-29T15:15:35.012Z,8.73
2023-03-29T15:17:51.146Z,14.25
2023-03-29T15:19:59.653Z,9.48
2023-03-29T15:22:10.444Z,17.38
2023-03-29T15:24:22.996Z,6.70
2023-03-29T15:26:29.615Z,9.80
2023-03-29T15:28:35.127Z,10.27
2023-03-29T15:30:47.766Z,11.70
2023-03-29T15:32:57.506Z,13.23
2023-03-29T15:35:01.690Z,58.58
2023-03-29T15:37:05.389Z,13.13
2023-03-29T15:39:12.776Z,9.88
2023-03-29T15:41:16.469Z,19.63
2023-03-29T15:43:21.926Z,16.60
2023-03-29T15:45:26.152Z,13.20
2023-03-29T15:47:31.135Z,8.55
2023-03-29T15:49:34.073Z,9.32
2023-03-29T15:51:37.078Z,14.15
2023-03-29T15:53:40.399Z,10.45
2023-03-29T15:55:46.420Z,10.48
2023-03-29T15:57:49.851Z,10.48
2023-03-29T15:59:52.875Z,19.60
2023-03-29T16:01:57.942Z,23.48
2023-03-29T16:04:02.963Z,18.67
2023-03-29T16:06:07.681Z,31.13
2023-03-29T16:08:11.937Z,18.80
2023-03-29T16:10:14.886Z,16.35
2023-03-29T16:12:17.876Z,9.80
2023-03-29T16:14:23.465Z,14.32
2023-03-29T16:16:26.713Z,19.67
2023-03-29T16:18:29.965Z,39.08
2023-03-29T16:20:34.414Z,34.35
2023-03-29T16:22:37.446Z,20.27
2023-03-29T16:24:40.460Z,14.23
2023-03-29T16:26:43.934Z,18.90
2023-03-29T16:28:46.976Z,11.98
2023-03-29T16:30:49.905Z,11.35
2023-03-29T16:32:52.943Z,10.63
2023-03-29T16:34:58.653Z,10.15
2023-03-29T16:37:03.090Z,11.80
2023-03-29T16:39:06.047Z,12.15
2023-03-29T16:41:12.666Z,10.95
2023-03-29T16:43:16.548Z,8.57
2023-03-29T16:45:20.388Z,16.90
2023-03-29T16:47:23.408Z,11.65
2023-03-29T16:49:26.432Z,11.35
2023-03-29T16:51:29.249Z,5.40
2023-03-29T16:53:34.719Z,8.98
2023-03-29T16:55:38.458Z,10.68
2023-03-29T16:57:42.453Z,17.25
2023-03-29T16:59:47.705Z,12.88
2023-03-29T17:01:50.890Z,4.53
2023-03-29T17:03:53.861Z,10.73
2023-03-29T17:05:58.087Z,8.57
2023-03-29T17:08:01.367Z,14.88
2023-03-29T17:10:07.110Z,21.85
2023-03-29T17:12:10.049Z,15.32
2023-03-29T17:14:13.050Z,18.10
2023-03-29T17:16:16.280Z,96.85
2023-03-29T17:18:19.552Z,57.05
2023-03-29T17:20:22.470Z,118.75
2023-03-29T17:22:26.070Z,28.80
2023-03-29T17:24:28.921Z,13.05
2023-03-29T17:26:33.356Z,20.08
2023-03-29T17:28:36.384Z,15.65
2023-03-29T17:30:40.216Z,18.50
2023-03-29T17:32:43.534Z,17.15
2023-03-29T17:34:46.680Z,17.92
2023-03-29T17:36:49.592Z,15.32
2023-03-29T17:38:52.563Z,17.10
2023-03-29T17:40:55.876Z,15.50
2023-03-29T17:43:00.327Z,19.83
2023-03-29T17:45:03.340Z,24.98
2023-03-29T17:47:06.438Z,32.50
2023-03-29T17:49:09.454Z,88.90
2023-03-29T17:51:12.427Z,112.72
2023-03-29T17:53:15.740Z,41.25
2023-03-29T17:55:19.027Z,47.70
2023-03-29T17:57:22.032Z,78.47
2023-03-29T17:59:26.663Z,62.80
2023-03-29T18:01:29.721Z,67.97
2023-03-29T18:03:33.000Z,26.52
2023-03-29T18:05:36.192Z,21.92
2023-03-29T18:07:38.997Z,14.15
2023-03-29T18:09:43.580Z,15.68
2023-03-29T18:11:46.360Z,31.25
2023-03-29T18:13:50.002Z,23.00
2023-03-29T18:15:56.919Z,17.27
2023-03-29T18:17:59.726Z,13.35
2023-03-29T18:20:02.947Z,13.63
2023-03-29T18:22:05.673Z,11.73
2023-03-29T18:24:08.460Z,17.58
2023-03-29T18:26:11.315Z,15.95
2023-03-29T18:28:14.252Z,19.55
2023-03-29T18:30:17.160Z,13.45
2023-03-29T18:32:21.922Z,12.80
2023-03-29T18:34:24.746Z,9.50
2023-03-29T18:36:29.354Z,11.55
2023-03-29T18:38:35.483Z,20.17
2023-03-29T18:40:39.390Z,22.45
2023-03-29T18:42:42.187Z,56.67
2023-03-29T18:44:45.123Z,157.13
2023-03-29T18:46:48.356Z,431.52
2023-03-29T18:48:53.688Z,154.02
2023-03-29T18:50:56.780Z,121.93
2023-03-29T18:52:59.680Z,76.28
2023-03-29T18:55:02.870Z,63.63
2023-03-29T18:57:05.968Z,84.35
2023-03-29T18:59:08.850Z,132.43
2023-03-29T19:01:13.092Z,179.07
2023-03-29T19:03:16.050Z,185.73
2023-03-29T19:05:20.549Z,167.00
2023-03-29T19:07:23.720Z,104.70
2023-03-29T19:09:27.548Z,55.97
2023-03-29T19:11:30.866Z,71.93
2023-03-29T19:13:34.572Z,33.97
2023-03-29T19:15:37.477Z,19.90
2023-03-29T19:17:40.463Z,19.25
2023-03-29T19:19:43.714Z,49.03
2023-03-29T19:21:48.270Z,45.72
2023-03-29T19:23:53.257Z,36.00
2023-03-29T19:25:57.694Z,29.38
2023-03-29T19:28:00.835Z,35.72
2023-03-29T19:30:04.203Z,35.85
2023-03-29T19:32:07.264Z,18.88
2023-03-29T19:34:11.468Z,47.30
2023-03-29T19:36:14.813Z,19.63
2023-03-29T19:38:19.639Z,20.10
2023-03-29T19:40:22.582Z,27.50
2023-03-29T19:42:25.576Z,24.25
2023-03-29T19:44:28.425Z,23.27
2023-03-29T19:46:31.780Z,23.60
2023-03-29T19:48:34.683Z,25.92
2023-03-29T19:50:40.702Z,25.08
2023-03-29T19:52:43.613Z,19.60
2023-03-29T19:54:48.036Z,12.15
2023-03-29T19:56:52.847Z,14.02
2023-03-29T19:58:56.084Z,15.60
2023-03-29T20:00:58.890Z,12.45
2023-03-29T20:03:02.607Z,13.57
2023-03-29T20:05:07.203Z,13.45
2023-03-29T20:07:10.515Z,12.02
2023-03-29T20:09:16.323Z,15.13
2023-03-29T20:11:24.205Z,11.38
2023-03-29T20:13:37.574Z,15.82
2023-03-29T20:15:45.233Z,10.95
2023-03-29T20:17:48.258Z,9.30
2023-03-29T20:19:51.196Z,14.15
2023-03-29T20:21:58.426Z,13.73
2023-03-29T20:24:01.356Z,13.80
2023-03-29T20:26:04.264Z,11.27
2023-03-29T20:28:08.832Z,13.32
2023-03-29T20:30:13.056Z,10.05
2023-03-29T20:32:16.077Z,12.23
2023-03-29T20:34:19.039Z,16.42
2023-03-29T20:36:23.370Z,12.60
2023-03-29T20:38:26.522Z,12.45
2023-03-29T20:40:30.366Z,9.10
2023-03-29T20:42:34.823Z,9.05
2023-03-29T20:44:39.468Z,12.75
2023-03-29T20:46:54.659Z,9.02
2023-03-29T20:48:57.747Z,9.10
2023-03-29T20:51:03.248Z,8.75
2023-03-29T20:53:07.606Z,9.45
2023-03-29T20:55:12.788Z,8.20
2023-03-29T20:57:17.838Z,8.15
2023-03-29T20:59:21.274Z,9.93
2023-03-29T21:01:26.091Z,9.18
2023-03-29T21:03:29.099Z,18.90
2023-03-29T21:05:33.740Z,8.93
2023-03-29T21:07:36.887Z,14.25
2023-03-29T21:09:40.183Z,12.25
2023-03-29T21:11:42.986Z,9.20
2023-03-29T21:13:45.986Z,19.25
2023-03-29T21:15:49.759Z,19.67
2023-03-29T21:17:54.439Z,18.38
2023-03-29T21:19:58.043Z,9.02
2023-03-29T21:22:01.500Z,17.63
2023-03-29T21:24:04.605Z,13.75
2023-03-29T21:26:10.407Z,12.57
2023-03-29T21:28:13.664Z,12.40
2023-03-29T21:30:16.781Z,22.50
2023-03-29T21:32:19.700Z,24.75
2023-03-29T21:34:24.334Z,22.48
2023-03-29T21:36:27.394Z,12.70
2023-03-29T21:38:30.423Z,15.57
2023-03-29T21:40:36.223Z,10.02
2023-03-29T21:42:39.473Z,12.23
2023-03-29T21:44:43.133Z,12.40
2023-03-29T21:46:46.467Z,11.68
2023-03-29T21:48:49.602Z,9.25
2023-03-29T21:50:54.004Z,5.47
2023-03-29T21:52:56.834Z,9.75
2023-03-29T21:55:00.005Z,9.43
2023-03-29T21:57:02.875Z,14.45
2023-03-29T21:59:06.044Z,20.65
2023-03-29T22:01:10.489Z,11.05
2023-03-29T22:03:13.773Z,23.50
2023-03-29T22:05:16.930Z,15.65
2023-03-29T22:07:22.982Z,16.42
2023-03-29T22:09:28.768Z,16.02
2023-03-29T22:11:32.319Z,10.18
2023-03-29T22:13:35.140Z,15.60
2023-03-29T22:15:39.205Z,8.55
2023-03-29T22:17:43.213Z,6.88
2023-03-29T22:19:47.879Z,9.38
2023-03-29T22:21:51.646Z,7.55
2023-03-29T22:23:57.606Z,9.00
2023-03-29T22:26:05.424Z,11.18
2023-03-29T22:28:08.421Z,7.13
2023-03-29T22:30:12.939Z,7.57
2023-03-29T22:32:15.999Z,6.65
2023-03-29T22:34:19.045Z,7.88
2023-03-29T22:36:23.702Z,7.75
2023-03-29T22:38:26.465Z,6.90
2023-03-29T22:40:33.523Z,9.52
2023-03-29T22:42:36.373Z,8.50
2023-03-29T22:44:39.243Z,7.35
2023-03-29T22:46:42.818Z,7.20
2023-03-29T22:48:46.545Z,14.50
2023-03-29T22:50:49.436Z,7.88
2023-03-29T22:52:52.406Z,9.25
2023-03-29T22:54:55.217Z,10.77
2023-03-29T22:56:59.674Z,7.10
2023-03-29T22:59:02.562Z,7.50
2023-03-29T23:01:06.942Z,8.50
2023-03-29T23:03:10.843Z,9.27
2023-03-29T23:05:14.078Z,5.82
2023-03-29T23:07:16.958Z,9.10
2023-03-29T23:09:19.942Z,7.00
2023-03-29T23:11:23.228Z,7.38
2023-03-29T23:13:29.591Z,8.70
2023-03-29T23:15:34.225Z,7.85
2023-03-29T23:17:37.500Z,9.80
2023-03-29T23:19:40.373Z,6.10
2023-03-29T23:21:43.293Z,9.40
2023-03-29T23:23:46.484Z,5.78
2023-03-29T23:25:51.175Z,8.05
2023-03-29T23:27:54.882Z,5.78
2023-03-29T23:29:59.913Z,5.18
2023-03-29T23:32:02.817Z,7.85
2023-03-29T23:34:05.793Z,7.68
2023-03-29T23:36:11.078Z,7.70
2023-03-29T23:38:14.116Z,7.30
2023-03-29T23:40:17.235Z,7.30
2023-03-29T23:42:21.511Z,7.47
2023-03-29T23:44:24.402Z,5.43
2023-03-29T23:46:28.898Z,7.55
2023-03-29T23:48:32.591Z,9.57
2023-03-29T23:50:35.587Z,7.13
2023-03-29T23:52:38.432Z,7.97
2023-03-29T23:54:41.533Z,8.20
2023-03-29T23:56:44.894Z,6.82
2023-03-29T23:58:48.013Z,6.35
